createdAt,value
2022-08-27T00:02:16.086Z,100.00
2022-08-27T00:04:43.709Z,100.00
2022-08-27T00:07:11.368Z,100.00
2022-08-27T00:09:38.259Z,100.00
2022-08-27T00:12:05.475Z,100.00
2022-08-27T00:14:32.360Z,100.00
2022-08-27T00:16:58.304Z,100.00
2022-08-27T00:19:24.620Z,100.00
2022-08-27T00:21:50.910Z,100.00
2022-08-27T00:24:16.797Z,100.00
2022-08-27T00:26:43.541Z,100.00
2022-08-27T00:29:09.611Z,100.00
2022-08-27T00:31:35.793Z,100.00
2022-08-27T00:34:01.643Z,100.00
2022-08-27T00:36:27.656Z,100.00
2022-08-27T00:38:54.037Z,100.00
2022-08-27T00:41:20.459Z,100.00
2022-08-27T00:43:56.645Z,100.00
2022-08-27T00:46:50.078Z,100.00
2022-08-27T00:49:47.101Z,100.00
2022-08-27T00:52:36.085Z,100.00
2022-08-27T00:55:08.114Z,100.00
2022-08-27T00:57:38.116Z,100.00
2022-08-27T01:00:08.620Z,100.00
2022-08-27T01:02:34.569Z,100.00
2022-08-27T01:05:06.911Z,100.00
2022-08-27T01:07:43.443Z,100.00
2022-08-27T01:10:17.103Z,100.00
2022-08-27T01:12:43.461Z,100.00
2022-08-27T01:15:16.954Z,100.00
2022-08-27T01:17:47.246Z,100.00
2022-08-27T01:20:19.593Z,100.00
2022-08-27T01:23:15.746Z,100.00
2022-08-27T01:25:42.705Z,100.00
2022-08-27T01:28:09.886Z,100.00
2022-08-27T01:30:36.409Z,100.00
2022-08-27T01:33:14.164Z,100.00
2022-08-27T01:35:42.220Z,100.00
2022-08-27T01:38:18.301Z,100.00
2022-08-27T01:40:55.569Z,100.00
2022-08-27T01:43:22.009Z,100.00
2022-08-27T01:45:50.040Z,100.00
2022-08-27T01:48:20.860Z,100.00
2022-08-27T01:50:47.629Z,100.00
2022-08-27T01:53:17.309Z,100.00
2022-08-27T01:55:48.200Z,100.00
2022-08-27T01:58:15.473Z,100.00
2022-08-27T02:00:45.349Z,100.00
2022-08-27T02:03:12.110Z,100.00
2022-08-27T02:05:44.770Z,100.00
2022-08-27T02:08:15.165Z,100.00
2022-08-27T02:10:42.825Z,100.00
2022-08-27T02:13:08.878Z,100.00
2022-08-27T02:15:36.586Z,100.00
2022-08-27T02:18:03.472Z,100.00
2022-08-27T02:20:30.559Z,100.00
2022-08-27T02:22:57.216Z,100.00
2022-08-27T02:25:23.101Z,100.00
2022-08-27T02:27:49.980Z,100.00
2022-08-27T02:30:20.924Z,100.00
2022-08-27T02:32:47.164Z,100.00
2022-08-27T02:35:15.359Z,100.00
2022-08-27T02:37:41.839Z,100.00
2022-08-27T02:40:08.953Z,100.00
2022-08-27T02:42:34.865Z,100.00
2022-08-27T02:45:00.689Z,100.00
2022-08-27T02:47:27.425Z,100.00
2022-08-27T02:49:53.251Z,100.00
2022-08-27T02:52:24.813Z,100.00
2022-08-27T02:54:50.909Z,100.00
2022-08-27T02:57:17.561Z,100.00
2022-08-27T02:59:43.324Z,100.00
2022-08-27T03:02:09.960Z,100.00
2022-08-27T03:04:36.429Z,100.00
2022-08-27T03:07:02.471Z,100.00
2022-08-27T03:09:28.350Z,100.00
2022-08-27T03:11:54.441Z,100.00
2022-08-27T03:14:20.306Z,100.00
2022-08-27T03:16:46.100Z,100.00
2022-08-27T03:19:11.944Z,100.00
2022-08-27T03:21:38.561Z,100.00
2022-08-27T03:24:11.271Z,100.00
2022-08-27T03:26:40.743Z,100.00
2022-08-27T03:29:07.140Z,100.00
2022-08-27T03:31:33.445Z,100.00
2022-08-27T03:34:02.993Z,100.00
2022-08-27T03:36:30.218Z,100.00
2022-08-27T03:38:56.793Z,100.00
2022-08-27T03:41:24.355Z,100.00
2022-08-27T03:44:11.247Z,100.00
2022-08-27T03:46:44.275Z,100.00
2022-08-27T03:49:10.172Z,100.00
2022-08-27T03:51:39.141Z,100.00
2022-08-27T03:54:05.012Z,100.00
2022-08-27T03:56:33.187Z,100.00
2022-08-27T03:58:59.024Z,100.00
2022-08-27T04:01:25.162Z,100.00
2022-08-27T04:03:51.475Z,100.00
2022-08-27T04:06:17.570Z,100.00
2022-08-27T04:08:43.364Z,100.00
2022-08-27T04:11:09.648Z,100.00
2022-08-27T04:13:36.018Z,100.00
2022-08-27T04:16:04.643Z,100.00
2022-08-27T04:18:30.468Z,100.00
2022-08-27T04:20:57.174Z,100.00
2022-08-27T04:23:23.327Z,100.00
2022-08-27T04:25:49.353Z,100.00
2022-08-27T04:28:15.853Z,100.00
2022-08-27T04:30:44.772Z,100.00
2022-08-27T04:33:13.238Z,100.00
2022-08-27T04:35:39.780Z,100.00
2022-08-27T04:38:05.858Z,100.00
2022-08-27T04:40:51.223Z,100.00
2022-08-27T04:43:18.962Z,100.00
2022-08-27T04:45:46.847Z,100.00
2022-08-27T04:48:15.259Z,100.00
2022-08-27T04:50:42.813Z,100.00
2022-08-27T04:53:09.896Z,100.00
2022-08-27T04:55:47.980Z,100.00
2022-08-27T04:58:14.791Z,100.00
2022-08-27T05:00:47.720Z,100.00
2022-08-27T05:03:17.258Z,100.00
2022-08-27T05:05:43.842Z,100.00
2022-08-27T05:08:13.467Z,100.00
2022-08-27T05:10:45.741Z,100.00
2022-08-27T05:13:11.968Z,100.00
2022-08-27T05:15:39.358Z,100.00
2022-08-27T05:18:06.922Z,100.00
2022-08-27T05:20:33.613Z,100.00
2022-08-27T05:22:59.924Z,100.00
2022-08-27T05:25:26.960Z,100.00
2022-08-27T05:27:52.793Z,100.00
2022-08-27T05:30:18.763Z,100.00
2022-08-27T05:32:44.643Z,100.00
2022-08-27T05:35:13.998Z,100.00
2022-08-27T05:37:42.112Z,100.00
2022-08-27T05:40:08.839Z,100.00
2022-08-27T05:42:34.785Z,100.00
2022-08-27T05:45:00.661Z,100.00
2022-08-27T05:47:26.721Z,100.00
2022-08-27T05:49:53.458Z,100.00
2022-08-27T05:52:20.758Z,100.00
2022-08-27T05:54:47.213Z,100.00
2022-08-27T05:57:13.198Z,100.00
2022-08-27T05:59:57.875Z,100.00
2022-08-27T06:02:24.150Z,100.00
2022-08-27T06:04:50.145Z,100.00
2022-08-27T06:07:16.008Z,100.00
2022-08-27T06:09:42.435Z,100.00
2022-08-27T06:12:08.804Z,100.00
2022-08-27T06:14:36.088Z,100.00
2022-08-27T06:17:02.513Z,100.00
2022-08-27T06:19:28.458Z,100.00
2022-08-27T06:22:01.048Z,100.00
2022-08-27T06:24:38.549Z,100.00
2022-08-27T06:27:04.650Z,100.00
2022-08-27T06:29:30.487Z,100.00
2022-08-27T06:31:56.299Z,100.00
2022-08-27T06:34:22.099Z,100.00
2022-08-27T06:36:47.914Z,100.00
2022-08-27T06:39:14.900Z,100.00
2022-08-27T06:41:42.833Z,100.00
2022-08-27T06:44:09.181Z,100.00
2022-08-27T06:46:36.186Z,100.00
2022-08-27T06:49:02.515Z,100.00
2022-08-27T06:51:34.125Z,100.00
2022-08-27T06:54:06.172Z,100.00
2022-08-27T06:56:32.592Z,100.00
2022-08-27T06:59:00.949Z,100.00
2022-08-27T07:01:31.028Z,100.00
2022-08-27T07:03:59.217Z,100.00
2022-08-27T07:06:27.073Z,100.00
2022-08-27T07:08:53.483Z,100.00
2022-08-27T07:11:20.485Z,100.00
2022-08-27T07:13:47.682Z,100.00
2022-08-27T07:16:18.292Z,100.00
2022-08-27T07:18:45.874Z,100.00
2022-08-27T07:21:12.088Z,100.00
2022-08-27T07:23:38.832Z,100.00
2022-08-27T07:26:09.212Z,100.00
2022-08-27T07:28:37.337Z,100.00
2022-08-27T07:31:05.103Z,100.00
2022-08-27T07:33:31.300Z,100.00
2022-08-27T07:35:57.128Z,100.00
2022-08-27T07:38:23.172Z,100.00
2022-08-27T07:40:49.012Z,100.00
2022-08-27T07:43:33.213Z,100.00
2022-08-27T07:46:01.360Z,100.00
2022-08-27T07:48:27.334Z,100.00
2022-08-27T07:50:53.506Z,100.00
2022-08-27T07:53:20.370Z,100.00
2022-08-27T07:55:46.425Z,100.00
2022-08-27T07:58:16.782Z,100.00
2022-08-27T08:00:45.079Z,100.00
2022-08-27T08:03:12.538Z,100.00
2022-08-27T08:05:43.139Z,100.00
2022-08-27T08:08:10.939Z,100.00
2022-08-27T08:10:38.707Z,100.00
2022-08-27T08:13:05.989Z,100.00
2022-08-27T08:15:32.180Z,100.00
2022-08-27T08:17:58.433Z,100.00
2022-08-27T08:20:41.551Z,100.00
2022-08-27T08:23:10.597Z,100.00
2022-08-27T08:25:38.545Z,100.00
2022-08-27T08:28:04.703Z,100.00
2022-08-27T08:30:33.154Z,100.00
2022-08-27T08:33:01.428Z,100.00
2022-08-27T08:35:27.268Z,100.00
2022-08-27T08:38:00.942Z,100.00
2022-08-27T08:40:38.315Z,100.00
2022-08-27T08:43:07.470Z,100.00
2022-08-27T08:45:37.847Z,100.00
2022-08-27T08:48:08.998Z,100.00
2022-08-27T08:50:54.754Z,100.00
2022-08-27T08:53:26.394Z,100.00
2022-08-27T08:56:00.783Z,100.00
2022-08-27T08:58:37.563Z,100.00
2022-08-27T09:01:06.648Z,100.00
2022-08-27T09:03:35.593Z,100.00
2022-08-27T09:06:03.137Z,100.00
2022-08-27T09:08:42.429Z,100.00
2022-08-27T09:11:08.471Z,100.00
2022-08-27T09:13:39.914Z,100.00
2022-08-27T09:16:06.724Z,98.24
2022-08-27T09:18:36.390Z,98.05
2022-08-27T09:21:27.690Z,97.17
2022-08-27T09:24:23.398Z,97.68
2022-08-27T09:26:49.302Z,98.01
2022-08-27T09:29:19.893Z,97.74
2022-08-27T09:31:51.860Z,95.69
2022-08-27T09:34:17.680Z,96.12
2022-08-27T09:36:59.893Z,96.14
2022-08-27T09:39:32.428Z,95.74
2022-08-27T09:41:58.627Z,95.80
2022-08-27T09:44:24.838Z,97.20
2022-08-27T09:46:59.877Z,96.83
2022-08-27T09:49:26.263Z,95.05
2022-08-27T09:51:53.153Z,94.93
2022-08-27T09:54:31.838Z,96.92
2022-08-27T09:56:58.432Z,97.67
2022-08-27T09:59:49.217Z,98.43
2022-08-27T10:02:21.295Z,99.39
2022-08-27T10:04:53.532Z,99.07
2022-08-27T10:07:31.011Z,99.30
2022-08-27T10:10:00.848Z,99.60
2022-08-27T10:12:41.368Z,99.16
2022-08-27T10:15:09.247Z,98.31
2022-08-27T10:17:47.124Z,99.14
2022-08-27T10:20:37.669Z,99.37
2022-08-27T10:23:19.263Z,98.81
2022-08-27T10:26:16.178Z,99.08
2022-08-27T10:29:03.188Z,99.96
2022-08-27T10:31:56.709Z,99.40
2022-08-27T10:34:47.173Z,99.86
2022-08-27T10:37:40.182Z,99.11
2022-08-27T10:40:17.638Z,100.00
2022-08-27T10:42:52.068Z,100.00
2022-08-27T10:45:45.374Z,99.36
2022-08-27T10:48:33.851Z,100.00
2022-08-27T10:51:23.351Z,100.00
2022-08-27T10:53:58.345Z,99.90
2022-08-27T10:57:08.397Z,99.70
2022-08-27T10:59:56.384Z,99.30
2022-08-27T11:02:36.827Z,99.73
2022-08-27T11:05:20.138Z,99.89
2022-08-27T11:07:58.864Z,98.92
2022-08-27T11:10:33.326Z,99.46
2022-08-27T11:13:05.363Z,99.96
2022-08-27T11:15:35.907Z,98.57
2022-08-27T11:18:16.406Z,99.54
2022-08-27T11:21:11.384Z,98.11
2022-08-27T11:23:43.481Z,98.83
2022-08-27T11:26:09.451Z,98.50
2022-08-27T11:28:46.574Z,98.73
2022-08-27T11:31:28.993Z,97.25
2022-08-27T11:34:14.958Z,95.21
2022-08-27T11:37:03.497Z,94.47
2022-08-27T11:39:38.067Z,94.57
2022-08-27T11:42:18.383Z,95.39
2022-08-27T11:44:47.832Z,94.43
2022-08-27T11:47:25.420Z,94.41
2022-08-27T11:49:56.196Z,94.18
2022-08-27T11:52:53.212Z,93.18
2022-08-27T11:55:19.031Z,93.27
2022-08-27T11:57:46.437Z,93.12
2022-08-27T12:00:24.538Z,94.56
2022-08-27T12:03:01.485Z,94.40
2022-08-27T12:05:38.920Z,93.06
2022-08-27T12:08:28.292Z,93.39
2022-08-27T12:11:08.396Z,94.40
2022-08-27T12:14:11.606Z,92.69
2022-08-27T12:17:04.162Z,92.31
2022-08-27T12:20:02.616Z,90.89
2022-08-27T12:23:05.510Z,90.80
2022-08-27T12:25:31.756Z,89.50
2022-08-27T12:28:02.555Z,89.65
2022-08-27T12:30:35.148Z,90.74
2022-08-27T12:33:29.572Z,91.10
2022-08-27T12:35:58.400Z,89.37
2022-08-27T12:38:44.407Z,88.67
2022-08-27T12:41:43.837Z,89.36
2022-08-27T12:44:14.133Z,89.45
2022-08-27T12:46:49.550Z,88.00
2022-08-27T12:49:37.882Z,87.19
2022-08-27T12:52:31.716Z,85.23
2022-08-27T12:55:12.772Z,84.91
2022-08-27T12:57:57.447Z,85.77
2022-08-27T13:00:26.512Z,86.29
2022-08-27T13:03:07.847Z,85.73
2022-08-27T13:05:42.288Z,86.09
2022-08-27T13:08:33.358Z,85.58
2022-08-27T13:11:33.172Z,83.97
2022-08-27T13:14:10.935Z,82.90
2022-08-27T13:16:41.707Z,82.38
2022-08-27T13:19:19.976Z,83.09
2022-08-27T13:21:50.255Z,82.64
2022-08-27T13:24:34.209Z,82.58
2022-08-27T13:27:03.595Z,81.77
2022-08-27T13:29:30.508Z,81.99
2022-08-27T13:31:57.866Z,82.44
2022-08-27T13:34:26.636Z,82.05
2022-08-27T13:37:21.101Z,81.92
2022-08-27T13:39:52.321Z,82.64
2022-08-27T13:42:20.205Z,82.59
2022-08-27T13:44:48.172Z,81.72
2022-08-27T13:47:24.078Z,80.76
2022-08-27T13:49:51.217Z,80.51
2022-08-27T13:52:28.432Z,80.27
2022-08-27T13:55:07.015Z,80.35
2022-08-27T13:57:54.342Z,80.32
2022-08-27T14:00:31.115Z,81.59
2022-08-27T14:03:00.188Z,82.32
2022-08-27T14:05:28.717Z,83.19
2022-08-27T14:07:56.166Z,83.33
2022-08-27T14:10:38.950Z,83.65
2022-08-27T14:13:43.534Z,84.76
2022-08-27T14:16:22.225Z,85.32
2022-08-27T14:19:02.741Z,85.83
2022-08-27T14:21:29.190Z,84.92
2022-08-27T14:23:55.387Z,83.74
2022-08-27T14:26:21.266Z,84.68
2022-08-27T14:28:47.576Z,84.18
2022-08-27T14:31:14.207Z,84.60
2022-08-27T14:33:40.121Z,82.89
2022-08-27T14:36:07.291Z,83.41
2022-08-27T14:38:36.695Z,82.77
2022-08-27T14:41:02.710Z,82.29
2022-08-27T14:43:34.011Z,81.51
2022-08-27T14:46:00.694Z,81.34
2022-08-27T14:48:31.767Z,81.52
2022-08-27T14:51:01.742Z,79.86
2022-08-27T14:53:28.362Z,80.67
2022-08-27T14:55:58.101Z,80.62
2022-08-27T14:58:24.492Z,81.16
2022-08-27T15:00:51.467Z,81.09
2022-08-27T15:03:19.093Z,81.22
2022-08-27T15:05:44.954Z,79.74
2022-08-27T15:08:15.066Z,79.47
2022-08-27T15:10:42.113Z,78.71
2022-08-27T15:13:10.495Z,78.38
2022-08-27T15:15:38.010Z,77.46
2022-08-27T15:18:04.838Z,76.97
2022-08-27T15:20:31.376Z,76.01
2022-08-27T15:22:58.053Z,75.24
2022-08-27T15:25:24.518Z,74.87
2022-08-27T15:27:51.412Z,74.23
2022-08-27T15:30:24.453Z,72.35
2022-08-27T15:32:51.133Z,70.13
2022-08-27T15:35:22.158Z,71.17
2022-08-27T15:37:48.384Z,71.28
2022-08-27T15:40:17.676Z,71.83
2022-08-27T15:42:44.920Z,72.94
2022-08-27T15:45:12.347Z,72.70
2022-08-27T15:47:38.588Z,71.52
2022-08-27T15:50:05.836Z,71.44
2022-08-27T15:52:40.924Z,70.98
2022-08-27T15:55:18.069Z,71.40
2022-08-27T15:57:43.900Z,72.57
2022-08-27T16:00:10.382Z,72.88
2022-08-27T16:02:36.379Z,72.41
2022-08-27T16:05:02.352Z,72.08
2022-08-27T16:07:28.230Z,72.14
2022-08-27T16:09:54.234Z,71.85
2022-08-27T16:12:22.431Z,71.71
2022-08-27T16:14:54.420Z,71.95
2022-08-27T16:17:20.526Z,72.84
2022-08-27T16:19:46.531Z,73.14
2022-08-27T16:22:12.416Z,72.36
2022-08-27T16:24:38.259Z,73.61
2022-08-27T16:27:04.097Z,73.76
2022-08-27T16:29:29.985Z,74.12
2022-08-27T16:31:59.261Z,74.07
2022-08-27T16:34:29.027Z,73.61
2022-08-27T16:36:55.620Z,73.17
2022-08-27T16:39:21.825Z,71.27
2022-08-27T16:41:47.826Z,70.90
2022-08-27T16:44:15.043Z,71.35
2022-08-27T16:46:40.969Z,71.20
2022-08-27T16:49:25.486Z,71.20
2022-08-27T16:51:51.611Z,71.37
2022-08-27T16:54:18.134Z,71.63
2022-08-27T16:56:46.227Z,71.92
2022-08-27T16:59:12.400Z,71.61
2022-08-27T17:01:41.796Z,71.53
2022-08-27T17:04:16.125Z,72.20
2022-08-27T17:06:50.781Z,71.67
2022-08-27T17:09:17.869Z,70.80
2022-08-27T17:11:54.924Z,70.93
2022-08-27T17:14:20.889Z,70.63
2022-08-27T17:16:46.748Z,69.93
2022-08-27T17:19:17.030Z,70.14
2022-08-27T17:21:45.095Z,69.77
2022-08-27T17:24:12.557Z,70.40
2022-08-27T17:26:38.917Z,70.59
2022-08-27T17:29:04.934Z,70.77
2022-08-27T17:31:34.985Z,70.61
2022-08-27T17:34:01.294Z,70.18
2022-08-27T17:36:29.413Z,69.84
2022-08-27T17:38:56.328Z,70.09
2022-08-27T17:41:40.803Z,70.76
2022-08-27T17:44:18.857Z,70.85
2022-08-27T17:46:45.069Z,71.47
2022-08-27T17:49:10.970Z,72.14
2022-08-27T17:51:36.993Z,71.56
2022-08-27T17:54:05.126Z,71.71
2022-08-27T17:56:30.973Z,71.83
2022-08-27T17:58:57.151Z,72.18
2022-08-27T18:01:29.417Z,71.85
2022-08-27T18:03:57.235Z,72.49
2022-08-27T18:06:24.908Z,72.56
2022-08-27T18:08:50.967Z,72.75
2022-08-27T18:11:17.538Z,72.97
2022-08-27T18:13:47.330Z,73.61
2022-08-27T18:16:13.181Z,73.11
2022-08-27T18:18:39.015Z,73.42
2022-08-27T18:21:07.651Z,73.69
2022-08-27T18:23:33.537Z,73.57
2022-08-27T18:25:59.505Z,73.88
2022-08-27T18:28:27.958Z,73.66
2022-08-27T18:30:54.296Z,73.46
2022-08-27T18:33:20.222Z,73.84
2022-08-27T18:35:47.421Z,73.77
2022-08-27T18:38:13.513Z,74.02
2022-08-27T18:40:43.859Z,73.99
2022-08-27T18:43:10.100Z,74.83
2022-08-27T18:45:36.963Z,74.08
2022-08-27T18:48:11.427Z,74.23
2022-08-27T18:50:43.556Z,74.55
2022-08-27T18:53:09.430Z,74.58
2022-08-27T18:55:35.664Z,73.55
2022-08-27T18:58:01.642Z,74.25
2022-08-27T19:00:28.297Z,74.10
2022-08-27T19:02:54.410Z,74.36
2022-08-27T19:05:24.340Z,74.26
2022-08-27T19:07:50.359Z,73.90
2022-08-27T19:10:16.392Z,74.30
2022-08-27T19:12:42.511Z,74.64
2022-08-27T19:15:10.799Z,74.17
2022-08-27T19:17:37.777Z,73.28
2022-08-27T19:20:05.590Z,73.75
2022-08-27T19:22:32.044Z,73.36
2022-08-27T19:24:58.886Z,73.33
2022-08-27T19:27:26.800Z,73.36
2022-08-27T19:29:53.103Z,73.50
2022-08-27T19:32:19.939Z,73.67
2022-08-27T19:34:45.989Z,73.52
2022-08-27T19:37:18.244Z,74.42
2022-08-27T19:39:44.716Z,74.55
2022-08-27T19:42:10.980Z,73.80
2022-08-27T19:44:37.054Z,74.03
2022-08-27T19:47:03.121Z,74.21
2022-08-27T19:49:29.082Z,74.59
2022-08-27T19:51:54.980Z,74.93
2022-08-27T19:54:21.004Z,75.22
2022-08-27T19:56:46.886Z,75.55
2022-08-27T19:59:21.030Z,75.75
2022-08-27T20:01:47.794Z,76.12
2022-08-27T20:04:13.729Z,76.56
2022-08-27T20:06:39.661Z,77.06
2022-08-27T20:09:07.666Z,76.58
2022-08-27T20:11:33.721Z,76.47
2022-08-27T20:13:59.601Z,76.94
2022-08-27T20:16:27.163Z,76.38
2022-08-27T20:18:56.363Z,76.68
2022-08-27T20:21:24.430Z,77.61
2022-08-27T20:23:50.621Z,78.10
2022-08-27T20:26:16.449Z,77.31
2022-08-27T20:28:42.645Z,78.19
2022-08-27T20:31:08.684Z,77.91
2022-08-27T20:33:34.509Z,77.45
2022-08-27T20:36:02.132Z,77.53
2022-08-27T20:38:28.088Z,77.43
2022-08-27T20:40:53.973Z,77.24
2022-08-27T20:43:19.789Z,77.04
2022-08-27T20:45:46.161Z,77.42
2022-08-27T20:48:12.369Z,76.88
2022-08-27T20:50:38.364Z,78.01
2022-08-27T20:53:04.295Z,78.01
2022-08-27T20:55:30.214Z,77.84
2022-08-27T20:58:15.118Z,76.99
2022-08-27T21:00:42.250Z,77.67
2022-08-27T21:03:10.656Z,77.66
2022-08-27T21:05:37.708Z,77.43
2022-08-27T21:08:05.365Z,76.92
2022-08-27T21:10:32.170Z,76.95
2022-08-27T21:12:58.079Z,76.88
2022-08-27T21:15:24.752Z,76.75
2022-08-27T21:17:50.715Z,76.72
2022-08-27T21:20:17.075Z,76.63
2022-08-27T21:22:43.510Z,76.19
2022-08-27T21:25:11.828Z,76.17
2022-08-27T21:27:39.121Z,76.08
2022-08-27T21:30:06.771Z,75.91
2022-08-27T21:32:33.317Z,76.75
2022-08-27T21:34:59.161Z,77.26
2022-08-27T21:37:24.982Z,77.10
2022-08-27T21:39:50.844Z,77.86
2022-08-27T21:42:16.730Z,77.69
2022-08-27T21:44:42.757Z,77.70
2022-08-27T21:47:09.439Z,77.18
2022-08-27T21:49:35.306Z,77.28
2022-08-27T21:52:05.145Z,77.15
2022-08-27T21:54:33.646Z,77.37
2022-08-27T21:57:00.005Z,77.32
2022-08-27T21:59:29.917Z,77.17
2022-08-27T22:02:00.950Z,77.80
2022-08-27T22:04:27.468Z,77.51
2022-08-27T22:06:57.004Z,77.48
2022-08-27T22:09:23.036Z,77.94
2022-08-27T22:11:48.844Z,77.60
2022-08-27T22:14:15.201Z,77.25
2022-08-27T22:16:41.410Z,76.79
2022-08-27T22:19:07.528Z,76.45
2022-08-27T22:21:33.744Z,76.70
2022-08-27T22:23:59.820Z,76.44
2022-08-27T22:26:25.763Z,76.31
2022-08-27T22:28:51.591Z,76.06
2022-08-27T22:31:18.092Z,76.54
2022-08-27T22:33:44.076Z,76.85
2022-08-27T22:36:10.056Z,76.80
2022-08-27T22:38:35.902Z,77.02
2022-08-27T22:41:01.937Z,77.06
2022-08-27T22:43:27.928Z,77.86
2022-08-27T22:45:53.765Z,77.77
2022-08-27T22:48:19.737Z,76.71
2022-08-27T22:50:45.753Z,75.96
2022-08-27T22:53:11.628Z,76.21
2022-08-27T22:55:37.670Z,75.77
2022-08-27T22:58:04.019Z,76.15
2022-08-27T23:00:33.454Z,76.36
2022-08-27T23:03:01.048Z,76.37
2022-08-27T23:05:27.859Z,77.28
2022-08-27T23:07:58.238Z,77.26
2022-08-27T23:10:24.171Z,77.34
2022-08-27T23:12:52.862Z,77.16
2022-08-27T23:15:19.978Z,77.53
2022-08-27T23:17:46.083Z,77.65
2022-08-27T23:20:12.703Z,77.29
2022-08-27T23:22:39.048Z,77.53
2022-08-27T23:25:25.628Z,77.71
2022-08-27T23:27:51.896Z,77.48
2022-08-27T23:30:17.773Z,77.10
2022-08-27T23:32:46.484Z,76.39
2022-08-27T23:35:16.368Z,75.88
2022-08-27T23:37:42.228Z,76.78
2022-08-27T23:40:11.116Z,76.46
2022-08-27T23:42:38.319Z,76.44
2022-08-27T23:45:05.113Z,76.18
2022-08-27T23:47:30.994Z,76.54
2022-08-27T23:49:56.895Z,76.51
2022-08-27T23:52:22.764Z,76.77
2022-08-27T23:54:48.572Z,76.89
2022-08-27T23:57:14.989Z,76.80
2022-08-27T23:59:41.222Z,76.85
